Time;durP1;ratioP1;P1;durP2;ratioP2;P2;SDS_P1;SDS_P2;PMS_P1;PMS_P2;Temp;Humidity;BMP_temperature;BMP_pressure;BME280_temperature;BME280_humidity;BME280_pressure;Samples;Min_cycle;Max_cycle;Signal;HPM_P1;HPM_P2
2021/12/17 00:05:06;;;;;;;0.20;0.20;;;7.70;99.90;;;;;;6166989;22;20111;-85
2021/12/17 00:07:35;;;;;;;0.30;0.30;;;7.70;99.90;;;;;;6153280;22;20384;-85
2021/12/17 00:10:04;;;;;;;0.30;0.30;;;7.70;99.90;;;;;;6283989;22;20024;-85
2021/12/17 00:12:31;;;;;;;0.17;0.17;;;7.70;99.90;;;;;;6283178;22;20318;-85
2021/12/17 00:14:58;;;;;;;1.13;1.05;;;7.70;99.90;;;;;;6282793;22;20024;-85
2021/12/17 00:17:29;;;;;;;0.47;0.30;;;7.70;99.90;;;;;;6282928;22;20113;-85
2021/12/17 00:52:40;;;;;;;0.33;0.33;;;7.70;99.90;;;;;;6177571;22;20100;-86
2021/12/17 00:55:07;;;;;;;0.40;0.40;;;7.80;99.90;;;;;;6153007;23;20338;-86
2021/12/17 00:57:40;;;;;;;1.45;1.02;;;7.70;99.90;;;;;;6177632;22;20024;-85
2021/12/17 01:00:13;;;;;;;0.75;0.57;;;7.70;99.90;;;;;;6152395;23;20361;-85
2021/12/17 01:02:38;;;;;;;3.33;0.98;;;7.70;99.90;;;;;;6152530;23;20109;-87
2021/12/17 01:05:10;;;;;;;2.28;1.27;;;7.70;99.90;;;;;;6152811;23;20021;-85
2021/12/17 01:07:38;;;;;;;0.43;0.43;;;7.70;99.90;;;;;;6154334;23;20099;-85
2021/12/17 01:10:07;;;;;;;0.20;0.20;;;7.70;99.90;;;;;;6155921;23;20456;-84
2021/12/17 01:12:33;;;;;;;4.78;1.38;;;7.70;99.90;;;;;;6159100;22;20441;-85
2021/12/17 01:14:59;;;;;;;0.20;0.20;;;7.70;99.90;;;;;;6157881;23;20016;-85
2021/12/17 01:17:26;;;;;;;0.30;0.30;;;7.70;99.90;;;;;;6183708;22;20358;-84
2021/12/17 01:25:32;;;;;;;0.40;0.35;;;7.70;99.90;;;;;;6183605;22;20057;-85
2021/12/17 01:36:10;;;;;;;0.20;0.20;;;7.70;99.90;;;;;;6179896;22;20035;-85
2021/12/17 01:43:55;;;;;;;1.40;1.30;;;7.80;99.90;;;;;;6183392;22;20024;-85
2021/12/17 01:46:24;;;;;;;1.33;1.23;;;7.70;99.90;;;;;;6158640;23;20017;-85
2021/12/17 01:59:19;;;;;;;0.20;0.20;;;7.70;99.90;;;;;;6181964;22;20413;-85
2021/12/17 01:59:46;;;;;;;;;;;7.70;99.90;;;;;;6182544;22;20017;-84
2021/12/17 02:02:13;;;;;;;0.20;0.20;;;7.70;99.90;;;;;;6182836;23;19912;-85
2021/12/17 02:04:38;;;;;;;0.50;0.50;;;7.70;99.90;;;;;;6158218;23;20096;-85
2021/12/17 02:07:05;;;;;;;1.27;0.70;;;7.70;99.90;;;;;;6183541;23;20055;-85
2021/12/17 02:10:15;;;;;;;0.60;0.60;;;7.70;99.90;;;;;;6159455;22;20008;-84
2021/12/17 02:12:43;;;;;;;0.88;0.85;;;7.70;99.90;;;;;;6210332;22;20017;-85
2021/12/17 02:28:41;;;;;;;1.42;0.95;;;7.70;99.90;;;;;;6315699;22;20241;-85
2021/12/17 02:28:58;;;;;;;;;;;7.70;99.90;;;;;;6316563;22;20154;-85
2021/12/17 02:31:28;;;;;;;6.63;3.17;;;7.70;99.90;;;;;;6289590;22;19912;-85
2021/12/17 02:33:58;;;;;;;6.88;3.35;;;7.60;99.90;;;;;;6289938;22;20477;-85
2021/12/17 02:36:28;;;;;;;4.65;1.75;;;7.70;99.90;;;;;;6289983;22;20021;-85
2021/12/17 02:39:09;;;;;;;0.88;0.80;;;7.60;99.90;;;;;;6316224;22;20490;-85
2021/12/17 02:47:07;;;;;;;1.48;0.93;;;7.60;99.90;;;;;;6252658;22;20017;-85
2021/12/17 02:49:34;;;;;;;1.95;0.40;;;7.60;99.90;;;;;;6289201;22;20515;-85
2021/12/17 02:52:05;;;;;;;1.02;0.93;;;7.60;99.90;;;;;;6315651;22;20048;-85
2021/12/17 02:54:33;;;;;;;2.47;1.25;;;7.60;99.90;;;;;;6315232;22;20023;-85
2021/12/17 02:56:59;;;;;;;2.78;1.40;;;7.80;99.90;;;;;;6289311;22;20044;-85
2021/12/17 02:59:25;;;;;;;0.50;0.50;;;7.70;99.90;;;;;;6289030;22;20438;-85
2021/12/17 03:01:51;;;;;;;2.15;1.63;;;7.70;99.90;;;;;;6289355;22;20020;-85
2021/12/17 03:04:19;;;;;;;0.60;0.60;;;7.60;99.90;;;;;;6289137;22;20395;-85
2021/12/17 03:06:45;;;;;;;5.07;1.13;;;7.70;99.90;;;;;;6288860;22;20021;-85
2021/12/17 03:09:11;;;;;;;8.98;3.08;;;7.60;99.90;;;;;;6289272;22;20008;-85
2021/12/17 03:11:37;;;;;;;2.30;1.45;;;7.60;99.90;;;;;;6289082;22;20058;-84
2021/12/17 03:14:03;;;;;;;1.65;0.90;;;7.60;99.90;;;;;;6288956;22;20009;-84
2021/12/17 03:16:39;;;;;;;1.15;1.05;;;7.60;99.90;;;;;;6183918;22;20034;-84
2021/12/17 03:19:10;;;;;;;1.20;0.73;;;7.60;99.90;;;;;;6148490;23;20349;-84
2021/12/17 03:24:22;;;;;;;0.40;0.40;;;7.60;99.90;;;;;;6183686;23;20023;-84
2021/12/17 03:26:48;;;;;;;5.38;1.92;;;7.60;99.90;;;;;;6289668;22;20505;-84
2021/12/17 03:29:14;;;;;;;6.05;1.10;;;7.60;99.90;;;;;;6288631;22;20108;-84
2021/12/17 03:31:40;;;;;;;0.20;0.20;;;7.50;99.90;;;;;;6289285;22;20017;-84
2021/12/17 03:34:17;;;;;;;0.25;0.25;;;7.70;99.90;;;;;;6289443;22;20008;-84
2021/12/17 03:36:45;;;;;;;8.85;1.13;;;7.50;99.90;;;;;;6158760;22;20070;-84
2021/12/17 03:39:11;;;;;;;1.27;0.95;;;7.50;99.90;;;;;;6288747;22;20103;-84
2021/12/17 03:41:38;;;;;;;0.90;0.68;;;7.80;99.90;;;;;;6263192;22;20044;-84
2021/12/17 03:44:07;;;;;;;0.40;0.40;;;7.50;99.90;;;;;;6289431;22;20035;-84
2021/12/17 03:46:33;;;;;;;0.68;0.68;;;7.50;99.90;;;;;;6288549;22;20020;-84
2021/12/17 03:48:59;;;;;;;0.75;0.75;;;7.50;99.90;;;;;;6289073;22;20012;-84
2021/12/17 03:51:25;;;;;;;0.30;0.30;;;7.50;99.90;;;;;;6158867;22;20044;-84
2021/12/17 03:53:54;;;;;;;0.45;0.45;;;7.50;99.90;;;;;;6158916;22;20013;-84
2021/12/17 03:56:20;;;;;;;0.30;0.30;;;7.50;99.90;;;;;;6288577;22;20013;-84
2021/12/17 03:58:48;;;;;;;0.35;0.35;;;7.50;99.90;;;;;;6183482;22;20349;-84
2021/12/17 04:01:13;;;;;;;0.25;0.20;;;7.60;99.90;;;;;;6289413;22;20013;-84
2021/12/17 04:03:39;;;;;;;0.30;0.30;;;7.60;99.90;;;;;;6288818;22;20073;-84
2021/12/17 04:06:05;;;;;;;0.30;0.30;;;7.60;99.90;;;;;;6314453;22;20087;-85
2021/12/17 04:08:30;;;;;;;1.48;0.85;;;7.50;99.90;;;;;;6288655;22;20012;-84
2021/12/17 04:11:04;;;;;;;0.60;0.60;;;7.60;99.90;;;;;;6288762;22;20048;-84
2021/12/17 04:13:34;;;;;;;1.60;0.60;;;7.60;99.90;;;;;;6288823;22;20012;-84
2021/12/17 04:16:06;;;;;;;0.30;0.30;;;7.60;99.90;;;;;;6289225;22;20024;-84
2021/12/17 04:18:33;;;;;;;0.68;0.50;;;7.60;99.90;;;;;;6289015;22;20016;-84
2021/12/17 04:21:00;;;;;;;0.45;0.45;;;7.60;99.90;;;;;;6289331;22;20048;-84
2021/12/17 04:23:26;;;;;;;0.73;0.70;;;7.60;99.90;;;;;;6288866;22;20039;-85
2021/12/17 04:25:52;;;;;;;0.50;0.50;;;7.60;99.90;;;;;;6314765;22;20009;-84
2021/12/17 04:28:19;;;;;;;1.85;0.93;;;7.60;99.90;;;;;;6288450;22;20012;-84
2021/12/17 04:30:46;;;;;;;0.20;0.20;;;7.60;99.90;;;;;;6288693;22;20355;-84
2021/12/17 04:33:13;;;;;;;1.35;1.13;;;7.60;99.90;;;;;;6289342;22;20092;-84
2021/12/17 04:35:39;;;;;;;0.88;0.50;;;7.60;99.90;;;;;;6158545;22;20017;-84
2021/12/17 04:38:07;;;;;;;0.32;0.32;;;7.60;99.90;;;;;;6288779;22;20020;-84
2021/12/17 04:40:36;;;;;;;0.25;0.25;;;7.60;99.90;;;;;;6289178;22;20013;-84
2021/12/17 04:43:34;;;;;;;0.20;0.20;;;7.60;99.90;;;;;;6159840;23;20107;-84
2021/12/17 04:46:15;;;;;;;0.43;0.43;;;7.70;99.90;;;;;;6291038;22;20024;-84
2021/12/17 04:59:36;;;;;;;1.10;1.05;;;7.60;99.90;;;;;;6315953;22;20092;-84
2021/12/17 05:02:03;;;;;;;0.20;0.20;;;7.60;99.90;;;;;;6289409;22;20386;-84
2021/12/17 05:04:29;;;;;;;0.52;0.47;;;7.60;99.90;;;;;;6290639;22;20062;-85
2021/12/17 05:06:54;;;;;;;0.40;0.40;;;7.60;99.90;;;;;;6315655;22;20016;-84
2021/12/17 05:09:32;;;;;;;0.43;0.43;;;7.60;99.90;;;;;;6290095;22;20065;-84
2021/12/17 05:20:44;;;;;;;0.40;0.40;;;7.60;99.90;;;;;;6315743;22;20024;-85
2021/12/17 05:23:09;;;;;;;1.48;0.85;;;7.50;99.90;;;;;;6145500;23;20350;-84
2021/12/17 05:25:35;;;;;;;0.17;0.17;;;7.50;99.90;;;;;;6179794;23;20048;-84
2021/12/17 05:28:00;;;;;;;1.08;0.82;;;7.50;99.90;;;;;;6159178;23;20096;-84
2021/12/17 05:30:27;;;;;;;0.40;0.40;;;7.60;99.90;;;;;;6159456;23;20116;-84
2021/12/17 05:32:54;;;;;;;0.20;0.20;;;7.50;99.90;;;;;;6159274;23;20012;-84
2021/12/17 05:35:19;;;;;;;0.30;0.30;;;7.60;99.90;;;;;;6184130;22;20023;-84
2021/12/17 05:37:45;;;;;;;0.30;0.30;;;7.60;99.90;;;;;;6159177;23;20013;-84
2021/12/17 05:40:11;;;;;;;0.20;0.20;;;7.60;99.90;;;;;;6159356;23;20048;-84
2021/12/17 05:42:37;;;;;;;0.20;0.20;;;7.60;99.90;;;;;;6159254;22;20020;-84
2021/12/17 05:45:09;;;;;;;0.50;0.50;;;7.70;99.90;;;;;;6159209;23;20108;-84
2021/12/17 05:47:35;;;;;;;0.43;0.43;;;7.60;99.90;;;;;;6159109;22;20063;-84
2021/12/17 05:50:00;;;;;;;0.28;0.28;;;7.60;99.90;;;;;;6184102;22;20016;-84
2021/12/17 05:52:26;;;;;;;0.22;0.22;;;7.60;99.90;;;;;;6158839;22;20017;-84
2021/12/17 05:54:51;;;;;;;0.17;0.17;;;7.60;99.90;;;;;;6183935;23;20016;-84
2021/12/17 05:57:17;;;;;;;0.20;0.20;;;7.60;99.90;;;;;;6159235;23;20012;-84
2021/12/17 05:59:42;;;;;;;0.20;0.20;;;7.60;99.90;;;;;;6159107;22;20040;-85
2021/12/17 06:02:11;;;;;;;0.25;0.25;;;7.50;99.90;;;;;;6159226;23;20020;-84
2021/12/17 06:04:37;;;;;;;0.20;0.20;;;7.60;99.90;;;;;;6159147;22;20055;-84
2021/12/17 06:07:04;;;;;;;0.28;0.28;;;7.50;99.90;;;;;;6158947;23;20319;-84
2021/12/17 06:09:30;;;;;;;0.20;0.20;;;7.50;99.90;;;;;;6159255;22;20320;-85
2021/12/17 06:11:55;;;;;;;0.20;0.20;;;7.50;99.90;;;;;;6184093;22;20012;-85
2021/12/17 06:14:21;;;;;;;0.20;0.20;;;7.50;99.90;;;;;;6159073;22;20446;-85
2021/12/17 06:16:48;;;;;;;0.82;0.77;;;7.50;99.90;;;;;;6159054;22;20024;-85
2021/12/17 06:19:17;;;;;;;0.57;0.57;;;7.50;99.90;;;;;;6158931;22;20020;-85
2021/12/17 06:21:43;;;;;;;0.30;0.30;;;7.50;99.90;;;;;;6159123;23;20019;-84
2021/12/17 06:24:08;;;;;;;0.20;0.20;;;7.50;99.90;;;;;;6183968;22;20442;-85
2021/12/17 06:26:34;;;;;;;0.20;0.20;;;7.50;99.90;;;;;;6183721;22;20225;-84
2021/12/17 06:28:59;;;;;;;0.20;0.20;;;7.50;99.90;;;;;;6159024;22;20442;-84
2021/12/17 06:31:26;;;;;;;0.20;0.20;;;7.50;99.90;;;;;;6183987;23;20013;-85
2021/12/17 06:33:52;;;;;;;0.20;0.20;;;7.60;99.90;;;;;;6183817;22;20013;-84
2021/12/17 06:36:17;;;;;;;0.30;0.30;;;7.50;99.90;;;;;;6159110;23;20016;-85
2021/12/17 06:38:43;;;;;;;0.30;0.30;;;7.70;99.90;;;;;;6159056;22;20457;-85
2021/12/17 06:41:08;;;;;;;0.13;0.13;;;7.50;99.90;;;;;;6158966;22;20008;-84
2021/12/17 06:43:40;;;;;;;0.20;0.20;;;7.60;99.90;;;;;;6158957;22;20077;-84
2021/12/17 06:46:32;;;;;;;0.20;0.20;;;7.70;99.90;;;;;;6158882;23;20567;-85
2021/12/17 06:49:16;;;;;;;0.50;0.50;;;7.60;99.90;;;;;;6159087;22;20385;-84
2021/12/17 07:00:10;;;;;;;0.30;0.30;;;7.60;99.90;;;;;;6183607;23;20410;-85
2021/12/17 07:10:47;;;;;;;0.43;0.43;;;7.60;99.90;;;;;;6183703;23;20020;-84
2021/12/17 07:21:28;;;;;;;0.13;0.13;;;7.60;99.90;;;;;;6183640;23;20020;-85
2021/12/17 07:39:38;;;;;;;0.77;0.75;;;7.50;99.90;;;;;;6183512;23;20085;-85
2021/12/17 07:42:04;;;;;;;0.68;0.68;;;7.50;99.90;;;;;;6158664;22;20072;-85
2021/12/17 07:44:29;;;;;;;5.15;1.27;;;7.50;99.90;;;;;;6158433;22;20097;-85
2021/12/17 07:46:55;;;;;;;1.08;0.85;;;7.40;99.90;;;;;;6158575;22;20016;-84
2021/12/17 07:49:21;;;;;;;0.22;0.22;;;7.40;99.90;;;;;;6158780;22;20012;-85
2021/12/17 07:51:47;;;;;;;0.55;0.55;;;7.40;99.90;;;;;;6158715;23;20016;-85
2021/12/17 07:54:13;;;;;;;0.80;0.70;;;7.40;99.90;;;;;;6158617;23;20349;-84
2021/12/17 07:56:38;;;;;;;0.40;0.40;;;7.40;99.90;;;;;;6158427;23;20327;-85
2021/12/17 07:59:10;;;;;;;0.55;0.55;;;7.40;99.90;;;;;;6158292;23;20016;-85
2021/12/17 08:01:37;;;;;;;0.40;0.40;;;7.40;99.90;;;;;;6158563;22;20450;-85
2021/12/17 08:04:04;;;;;;;3.22;1.77;;;7.40;99.90;;;;;;6158615;22;20057;-87
2021/12/17 08:06:30;;;;;;;1.95;1.33;;;7.40;99.90;;;;;;6158341;22;20017;-84
2021/12/17 08:08:55;;;;;;;1.13;0.85;;;7.40;99.90;;;;;;6183342;22;20017;-85
2021/12/17 08:11:22;;;;;;;0.80;0.70;;;7.40;99.90;;;;;;6158630;23;20533;-85
2021/12/17 08:13:48;;;;;;;0.55;0.55;;;7.40;99.90;;;;;;6158430;23;20323;-85
2021/12/17 08:31:56;;;;;;;0.30;0.30;;;7.50;99.90;;;;;;6186320;23;20413;-85
2021/12/17 08:34:22;;;;;;;0.57;0.40;;;7.50;99.90;;;;;;6161501;22;20024;-85
2021/12/17 08:36:48;;;;;;;1.65;1.17;;;7.50;99.90;;;;;;6161269;23;20013;-85
2021/12/17 08:39:13;;;;;;;0.30;0.30;;;7.50;99.90;;;;;;6161721;23;20494;-85
2021/12/17 08:41:40;;;;;;;0.63;0.63;;;7.50;99.90;;;;;;6186398;23;20017;-84
2021/12/17 08:44:06;;;;;;;8.20;2.08;;;7.50;99.90;;;;;;6161473;22;20055;-85
2021/12/17 08:46:33;;;;;;;0.40;0.40;;;7.60;99.90;;;;;;6185740;23;20013;-85
2021/12/17 08:48:58;;;;;;;0.30;0.30;;;7.60;99.90;;;;;;6212800;22;20017;-84
2021/12/17 08:51:25;;;;;;;0.30;0.30;;;7.60;99.90;;;;;;6291816;22;20476;-85
2021/12/17 08:53:50;;;;;;;1.23;1.13;;;7.60;99.90;;;;;;6291775;22;20449;-85
2021/12/17 08:56:19;;;;;;;0.80;0.80;;;7.60;99.90;;;;;;6291473;22;20017;-85
2021/12/17 08:58:46;;;;;;;0.50;0.50;;;7.60;99.90;;;;;;6291930;22;20016;-85
2021/12/17 09:01:12;;;;;;;0.38;0.38;;;7.60;99.90;;;;;;6291644;22;20012;-85
2021/12/17 09:03:38;;;;;;;0.45;0.45;;;7.60;99.90;;;;;;6291726;22;20408;-87
2021/12/17 09:06:05;;;;;;;1.25;1.00;;;7.60;99.90;;;;;;6291579;22;20450;-85
2021/12/17 09:08:30;;;;;;;1.50;1.00;;;7.70;99.90;;;;;;6292121;22;20023;-84
2021/12/17 09:10:56;;;;;;;1.13;0.63;;;7.60;99.90;;;;;;6318304;22;20500;-85
2021/12/17 09:13:26;;;;;;;0.50;0.50;;;7.60;99.90;;;;;;6318539;22;20061;-88
2021/12/17 09:15:57;;;;;;;1.33;1.23;;;7.60;99.90;;;;;;6292054;22;20095;-86
2021/12/17 09:18:24;;;;;;;0.90;0.73;;;7.70;99.90;;;;;;6291871;22;20481;-86
2021/12/17 09:20:51;;;;;;;0.40;0.40;;;7.70;99.90;;;;;;6291937;22;20021;-86
2021/12/17 09:23:17;;;;;;;2.00;1.77;;;7.70;99.90;;;;;;6291941;22;20023;-86
2021/12/17 09:25:43;;;;;;;0.20;0.20;;;7.70;99.90;;;;;;6317875;22;20012;-86
2021/12/17 09:28:10;;;;;;;3.67;1.33;;;7.70;99.90;;;;;;6290774;22;20219;-86
2021/12/17 09:30:36;;;;;;;0.70;0.70;;;7.70;99.90;;;;;;6290192;22;20016;-86
2021/12/17 09:33:02;;;;;;;1.08;0.80;;;7.80;99.90;;;;;;6290613;22;20055;-86
2021/12/17 09:35:29;;;;;;;3.03;0.55;;;7.80;99.90;;;;;;6290240;22;20319;-86
2021/12/17 09:37:54;;;;;;;0.30;0.30;;;7.80;99.90;;;;;;6184113;23;20021;-86
2021/12/17 09:40:20;;;;;;;0.30;0.30;;;7.80;99.90;;;;;;6289908;22;20516;-86
2021/12/17 09:42:47;;;;;;;2.78;1.70;;;7.90;99.90;;;;;;6289753;22;20027;-86
2021/12/17 09:45:15;;;;;;;0.47;0.45;;;7.90;99.90;;;;;;6290490;22;20027;-86
2021/12/17 09:47:42;;;;;;;0.38;0.38;;;7.80;99.90;;;;;;6288729;22;20017;-86
2021/12/17 09:50:09;;;;;;;0.75;0.73;;;7.90;99.90;;;;;;6316263;22;20008;-86
2021/12/17 09:52:35;;;;;;;1.55;1.25;;;8.00;99.90;;;;;;6290375;22;20012;-86
2021/12/17 09:55:02;;;;;;;0.77;0.75;;;8.00;99.90;;;;;;6316864;22;20065;-86
2021/12/17 09:57:30;;;;;;;3.47;1.65;;;7.90;99.90;;;;;;6159110;22;20048;-86
2021/12/17 09:59:56;;;;;;;0.20;0.20;;;8.00;99.90;;;;;;6290461;22;20013;-86
2021/12/17 10:02:22;;;;;;;0.30;0.30;;;8.00;99.90;;;;;;6290086;22;20023;-86
2021/12/17 10:04:47;;;;;;;0.20;0.20;;;8.00;99.90;;;;;;6289969;22;20032;-86
2021/12/17 10:07:28;;;;;;;1.75;0.75;;;8.00;99.90;;;;;;6289567;22;20017;-86
2021/12/17 10:09:55;;;;;;;0.40;0.40;;;8.10;99.90;;;;;;6290104;22;20016;-85
2021/12/17 10:12:31;;;;;;;0.30;0.30;;;8.10;99.90;;;;;;6290064;22;20062;-86
2021/12/17 10:15:02;;;;;;;;;;;8.20;99.90;;;;;;6316114;22;20020;-86
2021/12/17 10:17:27;;;;;;;0.60;0.60;;;8.20;99.90;;;;;;6289762;22;20311;-86
2021/12/17 10:19:53;;;;;;;1.05;0.85;;;8.20;99.90;;;;;;6290069;22;20025;-86
2021/12/17 10:22:20;;;;;;;0.90;0.57;;;8.20;99.90;;;;;;6289613;22;20091;-86
2021/12/17 10:24:56;;;;;;;3.70;1.13;;;8.20;99.90;;;;;;6289489;22;20016;-86
2021/12/17 10:27:25;;;;;;;0.30;0.30;;;8.20;99.90;;;;;;6290064;22;20027;-86
2021/12/17 10:29:51;;;;;;;0.45;0.30;;;8.20;99.90;;;;;;6315525;22;20012;-86
2021/12/17 10:32:23;;;;;;;0.82;0.60;;;8.30;99.90;;;;;;6289871;22;20395;-86
2021/12/17 10:35:11;;;;;;;0.60;0.40;;;8.30;99.90;;;;;;6159120;22;20039;-86
2021/12/17 10:37:44;;;;;;;0.20;0.20;;;8.40;99.90;;;;;;6289650;22;20023;-86
2021/12/17 10:40:20;;;;;;;2.78;1.42;;;8.40;99.90;;;;;;6159290;22;20345;-86
2021/12/17 10:45:46;;;;;;;3.92;3.20;;;8.40;99.90;;;;;;6252778;22;20024;-86
2021/12/17 10:48:24;;;;;;;0.25;0.25;;;8.40;99.90;;;;;;6159080;23;20020;-86
2021/12/17 10:50:53;;;;;;;0.13;0.13;;;8.50;99.90;;;;;;6159200;23;20020;-86
2021/12/17 10:53:23;;;;;;;1.20;1.10;;;8.50;99.90;;;;;;6159055;23;20327;-86
2021/12/17 10:55:49;;;;;;;0.30;0.30;;;8.50;99.90;;;;;;6159475;22;20024;-86
2021/12/17 10:58:14;;;;;;;0.22;0.22;;;8.50;99.90;;;;;;6184350;22;20016;-86
2021/12/17 11:01:09;;;;;;;0.30;0.30;;;8.60;99.90;;;;;;6159105;23;20315;-86
2021/12/17 11:03:44;;;;;;;3.63;1.85;;;8.60;99.90;;;;;;6159888;23;20323;-86
2021/12/17 11:06:10;;;;;;;2.38;0.85;;;8.60;99.90;;;;;;6159047;23;20055;-86
2021/12/17 11:08:37;;;;;;;1.20;0.80;;;8.60;99.90;;;;;;6159327;23;20342;-86
2021/12/17 11:11:11;;;;;;;5.78;2.38;;;8.60;99.90;;;;;;6183768;23;20014;-86
2021/12/17 11:13:55;;;;;;;4.18;1.88;;;8.60;99.90;;;;;;6159206;23;20035;-86
2021/12/17 11:16:21;;;;;;;2.42;1.38;;;8.60;99.90;;;;;;6158572;23;20345;-86
2021/12/17 11:18:49;;;;;;;3.00;1.75;;;8.60;99.90;;;;;;6159410;22;20012;-86
2021/12/17 11:21:15;;;;;;;0.35;0.35;;;8.60;99.90;;;;;;6159267;23;20027;-86
2021/12/17 11:23:41;;;;;;;0.30;0.30;;;8.70;99.90;;;;;;6159089;23;20020;-86
2021/12/17 11:26:07;;;;;;;0.20;0.20;;;8.70;99.90;;;;;;6159438;22;20015;-86
2021/12/17 11:28:33;;;;;;;0.40;0.40;;;8.70;99.90;;;;;;6158997;23;20412;-86
2021/12/17 11:30:59;;;;;;;0.65;0.50;;;8.70;99.90;;;;;;6183886;23;20085;-86
2021/12/17 11:33:25;;;;;;;0.20;0.20;;;8.70;99.90;;;;;;6184174;22;20042;-86
2021/12/17 11:35:53;;;;;;;0.60;0.55;;;8.80;99.90;;;;;;6158813;23;20020;-86
2021/12/17 11:38:50;;;;;;;1.33;0.75;;;8.80;99.90;;;;;;6158933;23;20017;-86
2021/12/17 11:41:44;;;;;;;0.20;0.20;;;8.80;99.90;;;;;;6159051;22;20024;-86
2021/12/17 11:44:12;;;;;;;3.50;2.28;;;8.80;99.90;;;;;;6159060;23;20024;-86
2021/12/17 11:46:38;;;;;;;0.90;0.73;;;8.80;99.90;;;;;;6183645;23;20038;-86
2021/12/17 11:49:11;;;;;;;1.00;0.50;;;8.90;99.90;;;;;;6159076;22;20017;-86
2021/12/17 11:51:37;;;;;;;1.05;0.95;;;8.90;99.90;;;;;;6181526;23;20012;-86
2021/12/17 11:54:17;;;;;;;0.98;0.75;;;8.90;99.90;;;;;;6158018;23;20013;-86
2021/12/17 11:56:47;;;;;;;0.45;0.40;;;8.90;99.90;;;;;;6156537;23;20020;-86
2021/12/17 11:59:43;;;;;;;0.30;0.30;;;9.00;99.90;;;;;;6158109;22;20017;-86
2021/12/17 12:02:16;;;;;;;0.60;0.60;;;9.00;99.90;;;;;;6159560;23;20020;-86
2021/12/17 12:04:43;;;;;;;1.10;0.88;;;9.00;99.90;;;;;;6158499;23;20017;-86
2021/12/17 12:07:10;;;;;;;1.85;1.38;;;9.00;99.90;;;;;;6183264;23;20021;-86
2021/12/17 12:09:57;;;;;;;0.50;0.50;;;9.00;99.90;;;;;;6158828;23;20100;-86
2021/12/17 12:12:27;;;;;;;0.20;0.20;;;9.00;99.90;;;;;;6158657;23;20376;-86
2021/12/17 12:14:54;;;;;;;0.40;0.40;;;9.00;99.90;;;;;;6158778;23;20024;-86
2021/12/17 12:17:57;;;;;;;0.20;0.20;;;9.00;99.90;;;;;;6158576;23;20027;-86
2021/12/17 12:20:50;;;;;;;1.27;0.77;;;9.00;99.90;;;;;;6158931;23;20028;-86
2021/12/17 12:23:21;;;;;;;0.20;0.20;;;9.00;99.90;;;;;;6158816;23;20028;-86
2021/12/17 12:26:11;;;;;;;0.85;0.45;;;9.00;99.90;;;;;;6158610;23;20046;-86
2021/12/17 12:28:44;;;;;;;0.20;0.20;;;9.00;99.90;;;;;;6183142;23;20021;-86
2021/12/17 12:31:19;;;;;;;1.38;0.70;;;9.00;99.90;;;;;;6158415;23;20013;-86
2021/12/17 12:34:13;;;;;;;0.30;0.30;;;9.10;99.90;;;;;;6183396;22;20404;-86
2021/12/17 12:37:00;;;;;;;0.85;0.50;;;9.10;99.90;;;;;;6158182;22;20089;-86
2021/12/17 12:40:02;;;;;;;0.30;0.30;;;9.10;99.90;;;;;;6182650;22;20021;-86
2021/12/17 12:42:33;;;;;;;2.88;1.75;;;9.10;99.90;;;;;;6158473;23;20020;-86
2021/12/17 12:44:58;;;;;;;0.60;0.55;;;9.10;99.90;;;;;;6158643;23;20301;-86
2021/12/17 12:47:24;;;;;;;0.63;0.43;;;9.10;99.90;;;;;;6158288;23;20016;-86
2021/12/17 12:50:06;;;;;;;1.15;0.95;;;9.10;99.90;;;;;;6183032;22;20417;-86
2021/12/17 12:52:32;;;;;;;0.65;0.45;;;9.10;99.90;;;;;;6158219;23;20462;-86
2021/12/17 12:55:21;;;;;;;1.58;1.25;;;9.10;99.90;;;;;;6158151;23;20107;-86
2021/12/17 12:57:57;;;;;;;1.23;0.85;;;9.10;99.90;;;;;;6157796;23;20016;-86
2021/12/17 13:00:27;;;;;;;3.13;1.45;;;9.00;99.90;;;;;;6157914;22;20017;-87
2021/12/17 13:02:56;;;;;;;1.13;0.90;;;9.00;99.90;;;;;;6160410;23;20024;-91
2021/12/17 13:05:23;;;;;;;0.30;0.30;;;9.00;99.90;;;;;;6160911;22;20013;-91
2021/12/17 13:07:55;;;;;;;3.63;1.48;;;9.00;99.90;;;;;;6162405;22;20028;-94
2021/12/17 13:10:25;;;;;;;1.92;0.80;;;9.00;99.90;;;;;;6115703;23;20020;-91
2021/12/17 13:13:14;;;;;;;0.40;0.40;;;9.00;99.90;;;;;;6162837;23;20020;-93
2021/12/17 13:24:10;;;;;;;0.88;0.75;;;9.10;99.90;;;;;;6186092;23;20024;-91
2021/12/17 13:26:39;;;;;;;0.55;0.55;;;9.10;99.90;;;;;;6160372;23;20468;-88
2021/12/17 13:29:15;;;;;;;0.65;0.65;;;9.10;99.90;;;;;;6160936;22;20017;-90
2021/12/17 13:31:54;;;;;;;2.20;1.27;;;9.10;99.90;;;;;;6161515;23;20070;-91
2021/12/17 13:34:22;;;;;;;0.28;0.28;;;9.00;99.90;;;;;;6185317;22;20062;-86
2021/12/17 13:36:52;;;;;;;0.60;0.50;;;9.00;99.90;;;;;;6160015;23;20016;-92
2021/12/17 13:39:19;;;;;;;0.52;0.52;;;9.00;99.90;;;;;;6161661;22;20013;-91
2021/12/17 13:41:46;;;;;;;1.13;0.57;;;9.00;99.90;;;;;;6161984;23;20017;-93
2021/12/17 13:44:33;;;;;;;0.35;0.32;;;9.00;99.90;;;;;;6160239;22;20027;-87
2021/12/17 13:47:11;;;;;;;0.40;0.40;;;9.00;99.90;;;;;;6160032;23;20323;-90
2021/12/17 13:49:37;;;;;;;0.60;0.60;;;9.00;99.90;;;;;;6160693;23;20048;-90
2021/12/17 13:52:04;;;;;;;0.45;0.43;;;9.20;99.90;;;;;;6160132;23;20098;-88
2021/12/17 13:54:30;;;;;;;2.67;2.28;;;9.00;99.90;;;;;;6186073;22;20096;-91
2021/12/17 13:57:00;;;;;;;1.15;0.73;;;8.90;99.90;;;;;;6161572;22;20024;-87
2021/12/17 13:59:31;;;;;;;0.45;0.32;;;8.90;99.90;;;;;;6160037;22;20013;-86
2021/12/17 14:01:57;;;;;;;1.17;0.73;;;9.00;99.90;;;;;;6159859;22;20028;-86
2021/12/17 14:04:23;;;;;;;0.28;0.28;;;9.00;99.90;;;;;;6159212;23;20441;-87
2021/12/17 14:06:53;;;;;;;0.10;0.10;;;9.00;99.90;;;;;;6183278;23;20387;-86
2021/12/17 14:09:20;;;;;;;0.82;0.82;;;9.00;99.90;;;;;;6159176;23;20405;-86
2021/12/17 14:11:46;;;;;;;2.15;1.15;;;8.90;99.90;;;;;;6159631;23;20092;-85
2021/12/17 14:14:27;;;;;;;1.00;0.65;;;8.90;99.90;;;;;;6183463;23;20017;-86
2021/12/17 14:17:01;;;;;;;15.57;1.85;;;8.90;99.90;;;;;;6158553;23;20055;-85
2021/12/17 14:19:43;;;;;;;1.85;0.95;;;8.90;99.90;;;;;;6157672;23;20024;-85
2021/12/17 14:22:29;;;;;;;2.17;1.15;;;8.90;99.90;;;;;;6158670;23;20346;-85
2021/12/17 14:24:57;;;;;;;0.17;0.17;;;8.90;99.90;;;;;;6158647;23;20477;-85
2021/12/17 14:27:40;;;;;;;3.25;1.23;;;8.90;99.90;;;;;;6158452;23;20017;-86
2021/12/17 14:30:06;;;;;;;1.75;1.15;;;8.90;99.90;;;;;;6158609;22;20350;-85
2021/12/17 14:32:38;;;;;;;0.90;0.77;;;8.90;99.90;;;;;;6158939;23;20024;-86
2021/12/17 14:35:04;;;;;;;0.22;0.22;;;8.90;99.90;;;;;;6158694;23;20327;-86
2021/12/17 14:37:30;;;;;;;0.38;0.35;;;8.80;99.90;;;;;;6158304;23;20023;-85
2021/12/17 14:39:58;;;;;;;0.28;0.28;;;8.80;99.90;;;;;;6158901;23;20387;-85
2021/12/17 14:42:33;;;;;;;1.00;0.93;;;8.80;99.90;;;;;;6158433;23;20061;-85
2021/12/17 14:45:06;;;;;;;3.33;1.80;;;8.80;99.90;;;;;;6183458;23;20035;-85
2021/12/17 14:47:49;;;;;;;2.58;1.45;;;8.80;99.90;;;;;;6159432;22;20021;-85
2021/12/17 15:01:36;;;;;;;2.88;1.10;;;8.70;99.90;;;;;;6183685;22;20107;-86
2021/12/17 15:04:02;;;;;;;4.00;2.13;;;8.70;99.90;;;;;;6158950;23;20017;-86
2021/12/17 15:06:27;;;;;;;3.58;1.60;;;8.80;99.90;;;;;;6158749;23;20438;-86
2021/12/17 15:08:53;;;;;;;5.35;2.40;;;8.70;99.90;;;;;;6159721;22;20017;-85
2021/12/17 15:11:28;;;;;;;4.03;1.20;;;8.70;99.90;;;;;;6159013;23;20009;-85
2021/12/17 15:13:53;;;;;;;;;;;8.70;99.90;;;;;;6159483;23;20019;-85
2021/12/17 15:16:19;;;;;;;5.32;1.15;;;8.60;99.90;;;;;;6158652;22;19912;-85
2021/12/17 15:18:45;;;;;;;1.65;1.08;;;8.70;99.90;;;;;;6159132;23;20024;-85
2021/12/17 15:21:11;;;;;;;1.23;1.13;;;8.70;99.90;;;;;;6159162;22;20021;-86
2021/12/17 15:23:37;;;;;;;0.30;0.30;;;8.60;99.90;;;;;;6159545;22;20069;-85
2021/12/17 15:26:03;;;;;;;2.03;0.32;;;8.60;99.90;;;;;;6183229;23;20021;-85
2021/12/17 15:28:29;;;;;;;2.75;1.52;;;8.70;99.90;;;;;;6184060;22;20023;-85
2021/12/17 15:31:04;;;;;;;1.05;0.85;;;8.60;99.90;;;;;;6158709;23;20077;-85
2021/12/17 15:33:30;;;;;;;1.02;0.80;;;8.60;99.90;;;;;;6157924;23;20013;-86
2021/12/17 15:35:56;;;;;;;4.13;2.30;;;8.60;99.90;;;;;;6158809;23;20020;-86
2021/12/17 15:38:23;;;;;;;3.35;2.20;;;8.60;99.90;;;;;;6158700;23;20393;-85
2021/12/17 15:40:50;;;;;;;5.47;2.80;;;8.60;99.90;;;;;;6183495;22;20016;-85
2021/12/17 15:43:17;;;;;;;3.33;1.60;;;8.60;99.90;;;;;;6158905;22;20048;-86
2021/12/17 15:45:44;;;;;;;2.40;1.58;;;8.60;99.90;;;;;;6159020;22;20008;-85
2021/12/17 15:48:13;;;;;;;4.40;2.08;;;8.50;99.90;;;;;;6158489;22;20017;-85
2021/12/17 15:50:39;;;;;;;3.97;2.25;;;8.50;99.90;;;;;;6158795;22;20055;-86
2021/12/17 15:53:05;;;;;;;3.33;1.80;;;8.50;99.90;;;;;;6158948;22;20345;-86
2021/12/17 15:55:31;;;;;;;2.60;1.83;;;8.60;99.90;;;;;;6158923;22;20454;-86
2021/12/17 15:57:57;;;;;;;3.65;1.52;;;8.50;99.90;;;;;;6183425;22;20023;-86
2021/12/17 16:00:25;;;;;;;7.10;1.73;;;8.40;99.90;;;;;;6288555;22;20012;-86
2021/12/17 16:02:51;;;;;;;4.68;2.67;;;8.50;99.90;;;;;;6288655;22;20022;-86
2021/12/17 16:05:20;;;;;;;0.30;0.30;;;8.50;99.90;;;;;;6288788;22;20044;-85
2021/12/17 16:07:48;;;;;;;0.40;0.40;;;8.50;99.90;;;;;;6288357;22;20020;-85
2021/12/17 16:18:18;;;;;;;1.50;0.90;;;8.50;99.90;;;;;;6172179;22;20027;-86
2021/12/17 16:21:01;;;;;;;1.23;0.77;;;8.40;99.90;;;;;;6288847;22;20013;-85